Titus, Alabama
Current Conditions -  °F | °C
As of 1:35 PM on Thursday 27 Nov 2014 (Local Time) from K1A9 Reporting Station
Scattered Clouds Scattered Clouds  
Wind Chill: 10°   Ceiling: Unl
Heat Index: 10°   Visibility: 10mi
Dew Point: -1°   Wind: 10mph
Humidity: 45%   Direction: 330°NNW
Pressure: 30.35"   Gusts: 17mph
Location:  32.71°N, 86.32°W
Report Text: K1A9 271935Z AUTO 33009G15KT 10SM SCT047 10/M01 A3035 RMK AO2 T01031013
Loading
Personal Weather Stations






























Interactive Weather Map New forecast layout! Learn more

10-Day Weather Forecast

Advertisements
Track Severe Weather on mobile